createdAt,value
2022-09-27T00:01:47.605Z,1.70
2022-09-27T00:04:15.920Z,0.83
2022-09-27T00:06:44.293Z,2.30
2022-09-27T00:09:12.477Z,2.97
2022-09-27T00:11:42.688Z,2.50
2022-09-27T00:14:13.538Z,6.83
2022-09-27T00:16:44.009Z,7.73
2022-09-27T00:19:18.070Z,8.53
2022-09-27T00:21:47.782Z,8.87
2022-09-27T00:24:18.600Z,8.20
2022-09-27T00:26:47.864Z,10.10
2022-09-27T00:29:17.075Z,12.53
2022-09-27T00:31:47.641Z,10.27
2022-09-27T00:34:21.175Z,16.27
2022-09-27T00:36:50.224Z,14.63
2022-09-27T00:39:18.854Z,14.53
2022-09-27T00:41:47.006Z,14.90
2022-09-27T00:44:52.568Z,14.93
2022-09-27T00:47:26.915Z,12.70
2022-09-27T00:49:58.363Z,17.90
2022-09-27T00:52:30.764Z,18.10
2022-09-27T00:55:05.721Z,16.10
2022-09-27T00:57:34.312Z,14.50
2022-09-27T01:00:05.957Z,17.37
2022-09-27T01:02:36.664Z,14.47
2022-09-27T01:05:05.967Z,14.50
2022-09-27T01:07:34.953Z,19.90
2022-09-27T01:10:03.642Z,17.50
2022-09-27T01:12:41.862Z,19.77
2022-09-27T01:15:17.223Z,16.33
2022-09-27T01:18:01.668Z,18.33
2022-09-27T01:21:09.824Z,22.30
2022-09-27T01:23:54.974Z,17.17
2022-09-27T01:26:47.007Z,17.93
2022-09-27T01:29:25.907Z,16.73
2022-09-27T01:32:04.404Z,17.40
2022-09-27T01:34:43.695Z,16.07
2022-09-27T01:37:18.927Z,16.90
2022-09-27T01:39:54.139Z,19.27
2022-09-27T01:42:27.244Z,17.87
2022-09-27T01:44:59.992Z,22.83
2022-09-27T01:47:36.732Z,20.30
2022-09-27T01:50:08.079Z,19.77
2022-09-27T01:52:42.234Z,21.10
2022-09-27T01:55:16.288Z,18.90
2022-09-27T01:57:48.513Z,19.97
2022-09-27T02:00:17.185Z,16.73
2022-09-27T02:02:51.451Z,18.53
2022-09-27T02:05:22.301Z,19.50
2022-09-27T02:07:57.692Z,17.53
2022-09-27T02:10:31.219Z,19.50
2022-09-27T02:13:06.543Z,16.23
2022-09-27T02:15:49.524Z,19.63
2022-09-27T02:18:24.216Z,23.13
2022-09-27T02:20:57.232Z,16.97
2022-09-27T02:23:36.158Z,17.53
2022-09-27T02:26:08.760Z,20.33
2022-09-27T02:28:41.701Z,18.90
2022-09-27T02:31:10.344Z,21.33
2022-09-27T02:33:43.908Z,21.03
2022-09-27T02:36:12.902Z,20.10
2022-09-27T02:38:41.466Z,19.80
2022-09-27T02:41:15.379Z,20.47
2022-09-27T02:43:45.944Z,19.27
2022-09-27T02:46:33.400Z,20.53
2022-09-27T02:49:20.493Z,20.83
2022-09-27T02:51:57.734Z,20.97
2022-09-27T02:54:31.991Z,18.07
2022-09-27T02:57:09.984Z,19.47
2022-09-27T02:59:52.261Z,19.77
2022-09-27T03:02:32.056Z,16.63
2022-09-27T03:05:06.313Z,15.77
2022-09-27T03:07:35.249Z,15.77
2022-09-27T03:10:03.694Z,14.17
2022-09-27T03:12:32.176Z,16.23
2022-09-27T03:15:01.717Z,14.50
2022-09-27T03:17:29.924Z,12.03
2022-09-27T03:19:58.066Z,12.03
2022-09-27T03:22:27.683Z,12.30
2022-09-27T03:24:55.865Z,11.87
2022-09-27T03:27:24.031Z,11.70
2022-09-27T03:29:52.320Z,11.27
2022-09-27T03:32:20.836Z,9.50
2022-09-27T03:34:48.986Z,9.23
2022-09-27T03:37:17.166Z,11.37
2022-09-27T03:39:46.725Z,9.10
2022-09-27T03:42:14.973Z,9.67
2022-09-27T03:44:43.185Z,10.63
2022-09-27T03:47:11.390Z,10.73
2022-09-27T03:49:39.768Z,10.87
2022-09-27T03:52:07.913Z,10.60
2022-09-27T03:54:35.999Z,10.47
2022-09-27T03:57:05.853Z,8.07
2022-09-27T03:59:34.031Z,10.23
2022-09-27T04:02:02.310Z,9.60
2022-09-27T04:04:31.488Z,9.40
2022-09-27T04:06:59.996Z,10.13
2022-09-27T04:09:28.201Z,9.77
2022-09-27T04:11:56.341Z,10.30
2022-09-27T04:14:25.868Z,11.00
2022-09-27T04:16:54.059Z,10.03
2022-09-27T04:19:22.350Z,10.20
2022-09-27T04:21:50.549Z,10.67
2022-09-27T04:24:18.619Z,10.87
2022-09-27T04:26:47.104Z,11.30
2022-09-27T04:29:16.019Z,12.43
2022-09-27T04:31:45.726Z,18.20
2022-09-27T04:34:13.938Z,14.13
2022-09-27T04:36:41.073Z,14.83
2022-09-27T04:39:10.517Z,16.70
2022-09-27T04:41:38.697Z,15.57
2022-09-27T04:44:07.399Z,22.47
2022-09-27T04:46:35.679Z,14.10
2022-09-27T04:49:05.376Z,13.70
2022-09-27T04:51:33.587Z,13.93
2022-09-27T04:54:01.998Z,15.13
2022-09-27T04:56:30.248Z,15.43
2022-09-27T04:58:58.791Z,13.10
2022-09-27T05:01:27.147Z,12.97
2022-09-27T05:03:55.264Z,34.40
2022-09-27T05:06:24.816Z,29.10
2022-09-27T05:08:53.148Z,15.37
2022-09-27T05:11:22.417Z,16.37
2022-09-27T05:13:50.591Z,18.00
2022-09-27T05:16:20.074Z,18.83
2022-09-27T05:18:48.548Z,18.37
2022-09-27T05:21:16.757Z,17.23
2022-09-27T05:23:47.977Z,16.70
2022-09-27T05:26:16.463Z,15.50
2022-09-27T05:28:47.339Z,15.17
2022-09-27T05:31:16.322Z,16.57
2022-09-27T05:33:44.627Z,14.23
2022-09-27T05:36:12.921Z,15.20
2022-09-27T05:38:42.421Z,17.67
2022-09-27T05:41:12.252Z,20.13
2022-09-27T05:43:40.479Z,16.13
2022-09-27T05:46:08.720Z,21.20
2022-09-27T05:48:37.698Z,18.37
2022-09-27T05:51:06.364Z,21.50
2022-09-27T05:53:34.479Z,21.70
2022-09-27T05:56:04.143Z,23.57
2022-09-27T05:58:34.516Z,23.57
2022-09-27T06:01:02.783Z,24.23
2022-09-27T06:03:31.024Z,24.03
2022-09-27T06:06:04.149Z,28.33
2022-09-27T06:08:34.995Z,25.30
2022-09-27T06:11:05.362Z,27.60
2022-09-27T06:13:36.262Z,26.00
2022-09-27T06:16:04.859Z,25.63
2022-09-27T06:18:33.132Z,23.17
2022-09-27T06:21:02.132Z,17.47
2022-09-27T06:23:32.761Z,18.37
2022-09-27T06:26:03.432Z,14.70
2022-09-27T06:28:31.947Z,13.97
2022-09-27T06:31:01.635Z,15.13
2022-09-27T06:33:30.001Z,15.60
2022-09-27T06:35:58.215Z,17.43
2022-09-27T06:38:26.702Z,19.90
2022-09-27T06:40:58.125Z,17.97
2022-09-27T06:43:26.427Z,22.23
2022-09-27T06:45:55.079Z,20.30
2022-09-27T06:48:25.012Z,23.33
2022-09-27T06:50:53.281Z,21.80
2022-09-27T06:53:21.434Z,25.13
2022-09-27T06:55:50.772Z,24.33
2022-09-27T06:58:37.282Z,22.23
2022-09-27T07:01:05.652Z,23.53
2022-09-27T07:03:40.886Z,24.63
2022-09-27T07:06:17.123Z,24.27
2022-09-27T07:08:45.319Z,25.60
2022-09-27T07:11:15.620Z,25.07
2022-09-27T07:13:44.022Z,24.37
2022-09-27T07:16:14.225Z,23.87
2022-09-27T07:18:44.372Z,23.97
2022-09-27T07:21:12.773Z,26.67
2022-09-27T07:23:40.979Z,24.93
2022-09-27T07:26:10.512Z,24.30
2022-09-27T07:28:41.677Z,26.30
2022-09-27T07:31:10.865Z,31.90
2022-09-27T07:33:43.248Z,23.70
2022-09-27T07:36:14.724Z,23.60
2022-09-27T07:38:43.357Z,25.53
2022-09-27T07:41:14.166Z,21.77
2022-09-27T07:43:44.132Z,22.63
2022-09-27T07:46:13.635Z,23.80
2022-09-27T07:48:42.306Z,26.57
2022-09-27T07:51:11.974Z,25.53
2022-09-27T07:53:41.842Z,24.43
2022-09-27T07:56:09.937Z,24.47
2022-09-27T07:58:38.086Z,25.90
2022-09-27T08:01:07.297Z,24.70
2022-09-27T08:03:36.209Z,23.57
2022-09-27T08:06:05.303Z,25.60
2022-09-27T08:08:33.435Z,28.10
2022-09-27T08:11:03.354Z,21.83
2022-09-27T08:13:31.591Z,23.43
2022-09-27T08:16:03.723Z,26.90
2022-09-27T08:18:31.946Z,24.33
2022-09-27T08:21:00.663Z,22.23
2022-09-27T08:23:29.066Z,25.43
2022-09-27T08:25:58.642Z,23.23
2022-09-27T08:28:28.662Z,25.53
2022-09-27T08:30:59.405Z,24.90
2022-09-27T08:33:31.935Z,23.63
2022-09-27T08:36:01.883Z,22.97
2022-09-27T08:38:30.056Z,24.23
2022-09-27T08:41:02.647Z,20.27
2022-09-27T08:43:42.659Z,21.67
2022-09-27T08:46:23.542Z,22.70
2022-09-27T08:49:11.028Z,21.80
2022-09-27T08:51:40.100Z,17.70
2022-09-27T08:54:12.958Z,14.57
2022-09-27T08:56:41.379Z,16.47
2022-09-27T08:59:14.790Z,16.23
2022-09-27T09:01:43.893Z,14.07
2022-09-27T09:04:13.305Z,16.13
2022-09-27T09:06:48.374Z,18.77
2022-09-27T09:09:28.066Z,16.60
2022-09-27T09:12:21.849Z,12.50
2022-09-27T09:15:07.227Z,15.93
2022-09-27T09:17:56.927Z,20.33
2022-09-27T09:20:37.278Z,15.23
2022-09-27T09:23:22.570Z,15.97
2022-09-27T09:26:00.367Z,15.87
2022-09-27T09:28:40.251Z,10.80
2022-09-27T09:31:17.724Z,10.43
2022-09-27T09:33:50.433Z,9.57
2022-09-27T09:36:26.471Z,12.93
2022-09-27T09:38:59.089Z,12.37
2022-09-27T09:41:33.089Z,11.57
2022-09-27T09:44:05.216Z,13.43
2022-09-27T09:46:42.208Z,9.53
2022-09-27T09:49:19.399Z,7.47
2022-09-27T09:51:51.696Z,9.90
2022-09-27T09:54:26.139Z,10.10
2022-09-27T09:57:03.189Z,8.37
2022-09-27T09:59:39.149Z,9.20
2022-09-27T10:02:27.630Z,8.40
2022-09-27T10:04:55.957Z,9.07
2022-09-27T10:07:26.472Z,11.03
2022-09-27T10:09:58.504Z,8.60
2022-09-27T10:12:26.899Z,9.00
2022-09-27T10:14:56.633Z,8.27
2022-09-27T10:17:36.668Z,7.03
2022-09-27T10:20:07.116Z,4.83
2022-09-27T10:22:39.218Z,7.47
2022-09-27T10:25:09.409Z,7.67
2022-09-27T10:27:41.995Z,7.70
2022-09-27T10:30:24.603Z,9.87
2022-09-27T10:32:58.188Z,7.47
2022-09-27T10:35:38.013Z,6.60
2022-09-27T10:38:25.009Z,10.37
2022-09-27T10:40:55.435Z,11.43
2022-09-27T10:43:32.158Z,9.77
2022-09-27T10:46:14.371Z,9.00
2022-09-27T10:48:44.663Z,11.50
2022-09-27T10:51:30.134Z,11.47
2022-09-27T10:54:01.272Z,8.37
2022-09-27T10:56:31.547Z,6.10
2022-09-27T10:59:01.074Z,8.07
2022-09-27T11:01:41.969Z,9.07
2022-09-27T11:04:22.106Z,8.60
2022-09-27T11:06:50.792Z,11.53
2022-09-27T11:09:24.216Z,6.23
2022-09-27T11:11:52.670Z,7.00
2022-09-27T11:14:24.222Z,9.77
2022-09-27T11:17:11.267Z,9.93
2022-09-27T11:19:54.016Z,7.13
2022-09-27T11:22:41.439Z,5.13
2022-09-27T11:25:21.045Z,7.43
2022-09-27T11:28:04.380Z,7.00
2022-09-27T11:30:43.745Z,7.87
2022-09-27T11:33:50.576Z,5.97
2022-09-27T11:36:31.564Z,5.13
2022-09-27T11:39:07.419Z,3.20
2022-09-27T11:41:47.050Z,4.70
2022-09-27T11:44:40.045Z,4.93
2022-09-27T11:47:19.204Z,2.80
2022-09-27T11:50:13.703Z,2.97
2022-09-27T11:52:56.919Z,5.63
2022-09-27T11:55:36.083Z,5.07
2022-09-27T11:58:12.831Z,2.73
2022-09-27T12:00:54.510Z,6.17
2022-09-27T12:03:50.062Z,3.07
2022-09-27T12:06:22.712Z,2.27
2022-09-27T12:09:03.019Z,4.10
2022-09-27T12:11:36.644Z,1.53
2022-09-27T12:14:08.563Z,1.63
2022-09-27T12:16:40.497Z,2.97
2022-09-27T12:19:16.884Z,1.47
2022-09-27T12:21:45.267Z,2.07
2022-09-27T12:24:20.600Z,1.40
2022-09-27T12:26:51.879Z,2.00
2022-09-27T12:29:23.923Z,1.20
2022-09-27T12:32:00.697Z,3.80
2022-09-27T12:34:38.820Z,1.40
2022-09-27T12:37:13.228Z,1.27
2022-09-27T12:39:53.015Z,2.53
2022-09-27T12:42:25.240Z,1.43
2022-09-27T12:44:54.249Z,1.43
2022-09-27T12:47:44.692Z,1.33
2022-09-27T12:50:17.236Z,1.63
2022-09-27T12:52:49.636Z,1.97
2022-09-27T12:55:56.458Z,1.30
2022-09-27T12:58:46.295Z,1.83
2022-09-27T13:01:21.991Z,1.93
2022-09-27T13:04:20.271Z,2.03
2022-09-27T13:07:12.248Z,2.10
2022-09-27T13:09:59.242Z,1.70
2022-09-27T13:12:30.488Z,1.50
2022-09-27T13:15:04.309Z,3.73
2022-09-27T13:17:51.840Z,2.27
2022-09-27T13:20:44.312Z,4.30
2022-09-27T13:23:58.026Z,2.67
2022-09-27T13:26:49.423Z,3.93
2022-09-27T13:29:34.925Z,2.73
2022-09-27T13:32:19.107Z,2.70
2022-09-27T13:34:48.739Z,2.53
2022-09-27T13:37:47.130Z,1.30
2022-09-27T13:40:27.334Z,2.87
2022-09-27T13:43:28.886Z,3.87
2022-09-27T13:46:00.476Z,2.03
2022-09-27T13:48:38.819Z,1.43
2022-09-27T13:51:17.802Z,3.20
2022-09-27T13:53:57.775Z,2.73
2022-09-27T13:56:51.962Z,1.73
2022-09-27T13:59:25.947Z,1.40
2022-09-27T14:02:01.009Z,2.57
2022-09-27T14:04:35.396Z,6.40
2022-09-27T14:07:05.400Z,2.23
2022-09-27T14:09:36.608Z,4.87
2022-09-27T14:12:11.331Z,4.97
2022-09-27T14:14:42.755Z,3.67
2022-09-27T14:17:12.787Z,3.17
2022-09-27T14:19:42.342Z,3.43
2022-09-27T14:22:14.312Z,2.00
2022-09-27T14:24:48.022Z,1.63
2022-09-27T14:27:19.045Z,2.90
2022-09-27T14:29:50.939Z,2.63
2022-09-27T14:32:22.450Z,5.33
2022-09-27T14:35:06.195Z,2.00
2022-09-27T14:37:35.667Z,1.97
2022-09-27T14:40:08.143Z,1.73
2022-09-27T14:42:38.847Z,2.73
2022-09-27T14:45:20.040Z,1.40
2022-09-27T14:47:51.393Z,1.60
2022-09-27T14:50:22.932Z,2.90
2022-09-27T14:52:55.416Z,2.10
2022-09-27T14:55:25.244Z,2.40
2022-09-27T14:57:55.353Z,2.03
2022-09-27T15:00:26.202Z,4.30
2022-09-27T15:02:59.123Z,3.50
2022-09-27T15:05:29.240Z,1.80
2022-09-27T15:08:01.417Z,1.70
2022-09-27T15:10:32.389Z,1.40
2022-09-27T15:13:03.608Z,4.13
2022-09-27T15:15:34.118Z,1.53
2022-09-27T15:18:05.294Z,1.33
2022-09-27T15:20:35.668Z,2.30
2022-09-27T15:23:05.350Z,1.70
2022-09-27T15:25:35.907Z,4.23
2022-09-27T15:28:07.284Z,1.90
2022-09-27T15:30:38.198Z,3.70
2022-09-27T15:33:19.500Z,1.30
2022-09-27T15:35:52.632Z,1.43
2022-09-27T15:38:27.916Z,3.77
2022-09-27T15:41:01.941Z,3.70
2022-09-27T15:43:32.106Z,1.70
2022-09-27T15:46:03.223Z,2.20
2022-09-27T15:48:35.320Z,1.30
2022-09-27T15:51:03.475Z,3.37
2022-09-27T15:53:46.149Z,2.77
2022-09-27T15:56:17.621Z,3.20
2022-09-27T15:58:49.737Z,3.37
2022-09-27T16:01:25.461Z,1.73
2022-09-27T16:03:55.772Z,1.40
2022-09-27T16:06:28.586Z,2.03
2022-09-27T16:08:58.307Z,3.30
2022-09-27T16:11:26.482Z,1.80
2022-09-27T16:13:56.259Z,1.50
2022-09-27T16:16:27.351Z,2.70
2022-09-27T16:18:57.061Z,1.43
2022-09-27T16:21:26.446Z,1.77
2022-09-27T16:23:56.806Z,2.40
2022-09-27T16:26:26.057Z,1.77
2022-09-27T16:28:54.433Z,2.97
2022-09-27T16:31:23.286Z,2.17
2022-09-27T16:33:51.849Z,4.80
2022-09-27T16:36:21.457Z,2.13
2022-09-27T16:38:51.220Z,2.37
2022-09-27T16:41:20.360Z,4.10
2022-09-27T16:43:48.801Z,3.90
2022-09-27T16:46:19.306Z,3.83
2022-09-27T16:48:48.808Z,4.17
2022-09-27T16:51:36.487Z,3.67
2022-09-27T16:54:07.768Z,3.07
2022-09-27T16:56:36.348Z,2.97
2022-09-27T16:59:06.605Z,5.57
2022-09-27T17:01:35.444Z,4.10
2022-09-27T17:04:04.102Z,2.00
2022-09-27T17:06:32.979Z,3.27
2022-09-27T17:09:05.436Z,3.87
2022-09-27T17:11:34.046Z,3.77
2022-09-27T17:14:02.606Z,3.67
2022-09-27T17:16:31.272Z,6.43
2022-09-27T17:18:59.469Z,3.23
2022-09-27T17:21:27.746Z,3.77
2022-09-27T17:23:56.597Z,4.27
2022-09-27T17:26:30.581Z,4.70
2022-09-27T17:29:00.790Z,2.17
2022-09-27T17:31:31.512Z,3.03
2022-09-27T17:34:00.008Z,4.57
2022-09-27T17:36:31.196Z,3.67
2022-09-27T17:38:59.772Z,2.03
2022-09-27T17:41:30.317Z,3.80
2022-09-27T17:44:00.197Z,5.00
2022-09-27T17:46:30.309Z,6.73
2022-09-27T17:49:16.319Z,2.57
2022-09-27T17:51:47.441Z,2.00
2022-09-27T17:54:21.081Z,1.67
2022-09-27T17:56:54.056Z,5.27
2022-09-27T17:59:24.693Z,5.00
2022-09-27T18:01:58.986Z,6.83
2022-09-27T18:04:32.405Z,4.07
2022-09-27T18:07:04.365Z,10.37
2022-09-27T18:09:34.673Z,2.67
2022-09-27T18:12:05.809Z,8.67
2022-09-27T18:14:36.802Z,3.97
2022-09-27T18:17:05.344Z,5.50
2022-09-27T18:19:35.446Z,7.57
2022-09-27T18:22:05.648Z,6.87
2022-09-27T18:24:35.479Z,6.17
2022-09-27T18:27:07.027Z,4.23
2022-09-27T18:29:36.625Z,119.10
2022-09-27T18:32:05.135Z,9.07
2022-09-27T18:34:36.663Z,9.13
2022-09-27T18:37:06.624Z,9.03
2022-09-27T18:39:35.062Z,3.33
2022-09-27T18:42:08.288Z,8.43
2022-09-27T18:44:38.266Z,7.27
2022-09-27T18:47:06.676Z,6.63
2022-09-27T18:49:39.006Z,8.10
2022-09-27T18:52:10.187Z,8.03
2022-09-27T18:54:42.759Z,3.57
2022-09-27T18:57:15.883Z,7.27
2022-09-27T18:59:48.147Z,4.47
2022-09-27T19:02:17.812Z,4.63
2022-09-27T19:04:48.679Z,3.40
2022-09-27T19:07:19.300Z,4.27
2022-09-27T19:09:50.358Z,8.30
2022-09-27T19:12:20.192Z,6.33
2022-09-27T19:14:53.266Z,4.87
2022-09-27T19:17:23.200Z,6.77
2022-09-27T19:19:54.497Z,5.73
2022-09-27T19:22:26.055Z,6.13
2022-09-27T19:24:59.348Z,6.87
2022-09-27T19:27:29.182Z,5.73
2022-09-27T19:30:01.147Z,4.67
2022-09-27T19:32:33.417Z,5.07
2022-09-27T19:35:01.887Z,5.10
2022-09-27T19:37:30.321Z,5.77
2022-09-27T19:40:02.211Z,9.23
2022-09-27T19:42:33.639Z,4.77
2022-09-27T19:45:10.624Z,7.50
2022-09-27T19:47:42.763Z,6.37
2022-09-27T19:50:14.539Z,5.63
2022-09-27T19:52:48.174Z,5.43
2022-09-27T19:55:16.687Z,3.77
2022-09-27T19:57:50.071Z,2.70
2022-09-27T20:00:21.307Z,3.30
2022-09-27T20:02:52.351Z,4.63
2022-09-27T20:05:22.598Z,3.40
2022-09-27T20:07:55.676Z,4.13
2022-09-27T20:10:26.740Z,3.13
2022-09-27T20:13:01.214Z,6.10
2022-09-27T20:15:29.615Z,3.37
2022-09-27T20:17:58.226Z,3.17
2022-09-27T20:20:26.642Z,5.03
2022-09-27T20:23:00.367Z,4.17
2022-09-27T20:25:31.085Z,7.70
2022-09-27T20:28:00.688Z,2.43
2022-09-27T20:30:30.577Z,3.83
2022-09-27T20:33:16.191Z,3.77
2022-09-27T20:35:52.139Z,3.43
2022-09-27T20:38:21.597Z,5.80
2022-09-27T20:40:59.038Z,6.77
2022-09-27T20:43:31.215Z,3.20
2022-09-27T20:46:05.552Z,3.60
2022-09-27T20:48:38.247Z,7.07
2022-09-27T20:51:09.279Z,3.10
2022-09-27T20:53:37.730Z,4.13
2022-09-27T20:56:06.502Z,10.67
2022-09-27T20:58:37.324Z,5.60
2022-09-27T21:01:07.340Z,5.67
2022-09-27T21:03:35.719Z,3.30
2022-09-27T21:06:04.663Z,4.13
2022-09-27T21:08:35.419Z,3.93
2022-09-27T21:11:08.876Z,5.53
2022-09-27T21:13:39.784Z,2.63
2022-09-27T21:16:09.572Z,1.90
2022-09-27T21:18:38.087Z,3.33
2022-09-27T21:21:08.319Z,3.90
2022-09-27T21:23:43.527Z,3.23
2022-09-27T21:26:14.967Z,4.03
2022-09-27T21:28:46.796Z,6.33
2022-09-27T21:31:21.621Z,4.73
2022-09-27T21:33:54.152Z,2.27
2022-09-27T21:36:23.513Z,3.87
2022-09-27T21:38:52.051Z,6.20
2022-09-27T21:41:20.442Z,1.93
2022-09-27T21:43:50.833Z,4.67
2022-09-27T21:46:20.750Z,2.00
2022-09-27T21:48:50.925Z,3.43
2022-09-27T21:51:21.120Z,9.53
2022-09-27T21:53:52.440Z,2.80
2022-09-27T21:56:22.099Z,4.53
2022-09-27T21:58:51.751Z,5.13
2022-09-27T22:01:21.947Z,3.83
2022-09-27T22:03:51.493Z,5.40
2022-09-27T22:06:21.821Z,4.00
2022-09-27T22:08:50.900Z,4.13
2022-09-27T22:11:21.248Z,2.67
2022-09-27T22:13:51.555Z,2.70
2022-09-27T22:16:21.270Z,4.53
2022-09-27T22:18:51.466Z,4.87
2022-09-27T22:21:22.333Z,1.87
2022-09-27T22:23:54.804Z,4.93
2022-09-27T22:26:25.436Z,3.77
2022-09-27T22:28:55.762Z,3.30
2022-09-27T22:31:24.628Z,4.20
2022-09-27T22:33:55.019Z,4.77
2022-09-27T22:36:24.402Z,2.17
2022-09-27T22:38:53.443Z,1.73
2022-09-27T22:41:21.960Z,8.80
2022-09-27T22:43:50.376Z,5.17
2022-09-27T22:46:20.371Z,3.90
2022-09-27T22:48:49.719Z,1.80
2022-09-27T22:51:18.524Z,1.93
2022-09-27T22:53:46.978Z,0.97
2022-09-27T22:56:17.319Z,2.87
2022-09-27T22:58:47.303Z,2.63
2022-09-27T23:01:17.945Z,2.40
2022-09-27T23:03:48.608Z,2.23
2022-09-27T23:06:18.973Z,6.67
2022-09-27T23:08:48.247Z,4.67
2022-09-27T23:11:18.650Z,2.03
2022-09-27T23:13:48.143Z,3.73
2022-09-27T23:16:17.843Z,2.87
2022-09-27T23:18:48.262Z,6.03
2022-09-27T23:21:17.626Z,1.53
2022-09-27T23:23:47.019Z,2.47
2022-09-27T23:26:17.380Z,3.73
2022-09-27T23:28:45.940Z,3.63
2022-09-27T23:31:15.461Z,2.17
2022-09-27T23:33:45.654Z,3.87
2022-09-27T23:36:17.544Z,2.50
2022-09-27T23:38:46.392Z,4.10
2022-09-27T23:41:15.187Z,3.93
2022-09-27T23:43:44.454Z,3.37
2022-09-27T23:46:13.550Z,2.27
2022-09-27T23:48:42.639Z,5.87
2022-09-27T23:51:12.404Z,3.47
2022-09-27T23:53:42.271Z,2.67
2022-09-27T23:56:13.329Z,2.00
2022-09-27T23:58:43.215Z,4.47
